createdAt,value
2023-03-28T00:00:59.001Z,6.80
2023-03-28T00:01:59.014Z,6.60
2023-03-28T00:02:59.049Z,6.70
2023-03-28T00:03:58.989Z,6.80
2023-03-28T00:04:58.968Z,6.60
2023-03-28T00:05:59.192Z,6.70
2023-03-28T00:06:58.950Z,6.60
2023-03-28T00:07:58.947Z,6.70
2023-03-28T00:08:58.940Z,7.00
2023-03-28T00:09:58.911Z,6.80
2023-03-28T00:10:58.904Z,7.00
2023-03-28T00:11:58.889Z,6.60
2023-03-28T00:12:58.871Z,6.70
2023-03-28T00:13:58.866Z,7.30
2023-03-28T00:14:58.869Z,6.70
2023-03-28T00:15:59.056Z,7.20
2023-03-28T00:16:58.866Z,7.30
2023-03-28T00:18:06.474Z,7.50
2023-03-28T00:18:58.804Z,7.30
2023-03-28T00:19:58.808Z,8.00
2023-03-28T00:20:58.805Z,7.30
2023-03-28T00:21:58.778Z,7.40
2023-03-28T00:22:58.782Z,6.40
2023-03-28T00:23:58.813Z,7.00
2023-03-28T00:24:58.787Z,7.00
2023-03-28T00:25:59.636Z,7.00
2023-03-28T00:26:58.723Z,6.70
2023-03-28T00:27:58.707Z,6.40
2023-03-28T00:28:58.700Z,6.20
2023-03-28T00:29:58.694Z,6.30
2023-03-28T00:30:58.736Z,6.10
2023-03-28T00:31:58.670Z,7.90
2023-03-28T00:32:58.717Z,8.00
2023-03-28T00:33:58.655Z,6.30
2023-03-28T00:34:58.637Z,7.90
2023-03-28T00:35:59.168Z,9.90
2023-03-28T00:36:58.616Z,7.40
2023-03-28T00:37:58.625Z,8.00
2023-03-28T00:38:58.602Z,8.60
2023-03-28T00:39:58.596Z,6.40
2023-03-28T00:40:58.592Z,6.70
2023-03-28T00:41:58.553Z,6.70
2023-03-28T00:42:58.754Z,6.50
2023-03-28T00:43:58.560Z,6.50
2023-03-28T00:44:58.573Z,6.10
2023-03-28T00:46:08.723Z,6.20
2023-03-28T00:47:00.589Z,6.30
2023-03-28T00:47:58.551Z,6.10
2023-03-28T00:48:58.490Z,5.30
2023-03-28T00:49:58.497Z,7.10
2023-03-28T00:50:58.455Z,6.90
2023-03-28T00:51:58.641Z,4.40
2023-03-28T00:52:58.440Z,7.20
2023-03-28T00:53:58.440Z,6.00
2023-03-28T00:54:58.412Z,10.70
2023-03-28T00:55:58.588Z,8.60
2023-03-28T00:56:58.457Z,3.40
2023-03-28T00:57:58.383Z,4.20
2023-03-28T00:58:58.397Z,5.90
2023-03-28T00:59:58.367Z,5.00
2023-03-28T01:00:58.357Z,5.60
2023-03-28T01:01:59.012Z,6.00
2023-03-28T01:02:58.502Z,8.10
2023-03-28T01:03:58.448Z,6.00
2023-03-28T01:04:58.327Z,6.60
2023-03-28T01:05:58.656Z,7.50
2023-03-28T01:06:58.279Z,1.10
2023-03-28T01:07:58.269Z,1.30
2023-03-28T01:08:58.251Z,1.40
2023-03-28T01:09:58.266Z,8.20
2023-03-28T01:10:58.278Z,10.80
2023-03-28T01:11:58.247Z,6.20
2023-03-28T01:12:58.217Z,5.50
2023-03-28T01:13:58.286Z,2.00
2023-03-28T01:14:58.228Z,1.30
2023-03-28T01:15:58.615Z,2.20
2023-03-28T01:16:58.198Z,2.30
2023-03-28T01:17:58.222Z,4.60
2023-03-28T01:18:58.254Z,8.60
2023-03-28T01:19:58.132Z,6.70
2023-03-28T01:20:58.253Z,4.90
2023-03-28T01:21:58.119Z,6.70
2023-03-28T01:22:58.371Z,6.70
2023-03-28T01:24:11.646Z,6.60
2023-03-28T01:24:59.210Z,6.00
2023-03-28T01:25:58.317Z,6.20
2023-03-28T01:26:58.083Z,6.30
2023-03-28T01:27:58.055Z,6.30
2023-03-28T01:28:58.090Z,6.30
2023-03-28T01:29:58.020Z,6.80
2023-03-28T01:30:58.012Z,6.90
2023-03-28T01:31:58.074Z,6.90
2023-03-28T01:32:58.012Z,6.80
2023-03-28T01:33:58.006Z,6.50
2023-03-28T01:34:57.986Z,6.50
2023-03-28T01:36:57.943Z,4.90
2023-03-28T01:37:57.935Z,5.20
2023-03-28T01:38:57.924Z,6.20
2023-03-28T01:39:58.002Z,5.40
2023-03-28T01:40:57.904Z,6.70
2023-03-28T01:41:57.942Z,5.80
2023-03-28T01:42:57.876Z,5.90
2023-03-28T01:43:57.883Z,5.70
2023-03-28T01:44:57.870Z,5.70
2023-03-28T01:45:58.289Z,5.40
2023-03-28T01:46:57.830Z,5.30
2023-03-28T01:47:57.858Z,5.60
2023-03-28T01:48:57.821Z,5.70
2023-03-28T01:49:57.815Z,5.80
2023-03-28T01:50:57.835Z,5.70
2023-03-28T01:51:57.793Z,5.70
2023-03-28T01:52:57.764Z,5.60
2023-03-28T01:53:57.756Z,5.70
2023-03-28T01:54:57.774Z,5.50
2023-03-28T01:55:58.019Z,5.80
2023-03-28T01:56:57.751Z,5.80
2023-03-28T01:57:57.733Z,3.50
2023-03-28T01:58:57.752Z,3.70
2023-03-28T01:59:57.707Z,4.90
2023-03-28T02:00:58.503Z,6.60
2023-03-28T02:01:57.696Z,6.70
2023-03-28T02:02:57.749Z,4.80
2023-03-28T02:03:57.673Z,4.80
2023-03-28T02:04:57.664Z,5.50
2023-03-28T02:05:57.911Z,5.30
2023-03-28T02:06:57.635Z,5.90
2023-03-28T02:07:57.636Z,5.70
2023-03-28T02:08:57.592Z,5.20
2023-03-28T02:09:57.615Z,4.90
2023-03-28T02:10:57.754Z,5.70
2023-03-28T02:11:57.586Z,5.50
2023-03-28T02:12:57.554Z,5.50
2023-03-28T02:13:57.547Z,5.60
2023-03-28T02:14:57.525Z,5.40
2023-03-28T02:15:57.855Z,5.70
2023-03-28T02:16:57.585Z,6.10
2023-03-28T02:17:57.542Z,5.80
2023-03-28T02:18:57.493Z,5.50
2023-03-28T02:19:57.482Z,6.00
2023-03-28T02:20:57.509Z,5.70
2023-03-28T02:21:57.472Z,5.80
2023-03-28T02:22:57.494Z,5.70
2023-03-28T02:23:57.456Z,6.00
2023-03-28T02:24:57.456Z,5.60
2023-03-28T02:25:57.555Z,5.00
2023-03-28T02:26:57.402Z,5.70
2023-03-28T02:27:57.428Z,5.40
2023-03-28T02:28:57.390Z,5.00
2023-03-28T02:29:57.379Z,5.10
2023-03-28T02:30:57.362Z,4.80
2023-03-28T02:31:57.557Z,3.30
2023-03-28T02:32:57.352Z,4.00
2023-03-28T02:33:57.330Z,4.50
2023-03-28T02:34:57.364Z,3.80
2023-03-28T02:35:57.428Z,3.90
2023-03-28T02:36:57.476Z,3.40
2023-03-28T02:37:57.285Z,3.60
2023-03-28T02:38:57.304Z,3.80
2023-03-28T02:39:57.267Z,4.00
2023-03-28T02:40:57.286Z,3.60
2023-03-28T02:41:57.319Z,5.10
2023-03-28T02:42:57.228Z,5.40
2023-03-28T02:43:57.221Z,5.50
2023-03-28T02:44:57.261Z,6.30
2023-03-28T02:45:57.372Z,6.50
2023-03-28T02:46:57.899Z,6.20
2023-03-28T02:47:57.230Z,5.50
2023-03-28T02:48:57.179Z,6.20
2023-03-28T02:49:57.159Z,7.00
2023-03-28T02:50:57.188Z,6.60
2023-03-28T02:51:57.141Z,6.10
2023-03-28T02:52:57.122Z,5.20
2023-03-28T02:53:57.115Z,6.80
2023-03-28T02:54:57.120Z,7.20
2023-03-28T02:55:57.148Z,4.80
2023-03-28T02:56:57.124Z,4.30
2023-03-28T02:57:57.074Z,6.20
2023-03-28T02:58:57.073Z,16.50
2023-03-28T02:59:57.070Z,11.10
2023-03-28T03:00:57.057Z,10.10
2023-03-28T03:01:57.096Z,13.30
2023-03-28T03:02:57.082Z,9.80
2023-03-28T03:03:58.131Z,4.90
2023-03-28T03:04:57.995Z,2.90
2023-03-28T03:05:57.145Z,1.70
2023-03-28T03:06:57.002Z,1.20
2023-03-28T03:07:56.963Z,0.90
2023-03-28T03:08:56.969Z,1.80
2023-03-28T03:09:56.951Z,2.30
2023-03-28T03:10:56.965Z,2.40
2023-03-28T03:11:56.916Z,4.70
2023-03-28T03:12:56.910Z,4.30
2023-03-28T03:13:56.890Z,2.50
2023-03-28T03:14:56.895Z,3.40
2023-03-28T03:15:56.994Z,3.20
2023-03-28T03:16:56.884Z,3.30
2023-03-28T03:17:56.887Z,4.80
2023-03-28T03:18:56.976Z,4.60
2023-03-28T03:19:56.840Z,5.20
2023-03-28T03:20:56.833Z,7.50
2023-03-28T03:21:56.840Z,5.80
2023-03-28T03:22:56.854Z,6.10
2023-03-28T03:23:56.792Z,5.70
2023-03-28T03:24:56.787Z,3.70
2023-03-28T03:25:56.785Z,4.60
2023-03-28T03:26:56.769Z,6.20
2023-03-28T03:27:56.764Z,7.10
2023-03-28T03:28:56.735Z,3.60
2023-03-28T03:29:56.722Z,3.10
2023-03-28T03:30:56.721Z,4.60
2023-03-28T03:31:56.700Z,3.30
2023-03-28T03:32:56.733Z,3.70
2023-03-28T03:33:56.678Z,4.40
2023-03-28T03:34:56.677Z,3.60
2023-03-28T03:35:56.716Z,4.20
2023-03-28T03:36:56.643Z,3.80
2023-03-28T03:37:56.647Z,4.60
2023-03-28T03:38:56.623Z,3.90
2023-03-28T03:39:56.616Z,3.60
2023-03-28T03:40:56.610Z,3.70
2023-03-28T03:41:56.603Z,3.90
2023-03-28T03:42:56.891Z,4.60
2023-03-28T03:43:56.566Z,4.10
2023-03-28T03:44:56.554Z,2.60
2023-03-28T03:45:56.657Z,2.70
2023-03-28T03:46:56.556Z,2.90
2023-03-28T03:47:56.601Z,2.40
2023-03-28T03:48:56.513Z,2.70
2023-03-28T03:49:56.500Z,2.80
2023-03-28T03:50:56.489Z,2.70
2023-03-28T03:51:56.472Z,2.40
2023-03-28T03:52:56.498Z,3.90
2023-03-28T03:53:56.452Z,3.20
2023-03-28T03:54:56.465Z,2.90
2023-03-28T03:55:56.441Z,2.80
2023-03-28T03:56:56.483Z,4.60
2023-03-28T03:57:57.018Z,5.30
2023-03-28T03:58:56.439Z,6.50
2023-03-28T03:59:56.387Z,6.20
2023-03-28T04:00:56.375Z,7.20
2023-03-28T04:01:56.435Z,7.20
2023-03-28T04:02:56.531Z,6.30
2023-03-28T04:03:56.355Z,6.30
2023-03-28T04:04:56.329Z,5.70
2023-03-28T04:05:56.318Z,4.80
2023-03-28T04:06:56.480Z,5.30
2023-03-28T04:07:56.310Z,7.20
2023-03-28T04:08:56.291Z,6.00
2023-03-28T04:09:56.274Z,5.60
2023-03-28T04:10:56.264Z,6.90
2023-03-28T04:11:56.272Z,8.50
2023-03-28T04:12:56.292Z,6.60
2023-03-28T04:13:56.231Z,6.60
2023-03-28T04:14:56.338Z,6.10
2023-03-28T04:15:56.274Z,6.20
2023-03-28T04:16:56.218Z,6.70
2023-03-28T04:17:56.399Z,6.70
2023-03-28T04:18:56.191Z,6.70
2023-03-28T04:19:56.167Z,7.10
2023-03-28T04:20:56.179Z,6.60
2023-03-28T04:21:56.143Z,6.40
2023-03-28T04:22:56.136Z,7.30
2023-03-28T04:23:56.217Z,6.90
2023-03-28T04:24:56.121Z,7.60
2023-03-28T04:25:56.173Z,6.50
2023-03-28T04:26:56.212Z,6.80
2023-03-28T04:27:56.102Z,6.70
2023-03-28T04:28:56.066Z,6.90
2023-03-28T04:29:56.070Z,6.70
2023-03-28T04:30:56.070Z,7.00
2023-03-28T04:31:56.146Z,3.90
2023-03-28T04:32:56.098Z,2.80
2023-03-28T04:33:56.030Z,2.50
2023-03-28T04:34:56.001Z,2.50
2023-03-28T04:35:56.023Z,1.90
2023-03-28T04:36:55.983Z,2.20
2023-03-28T04:37:56.004Z,2.30
2023-03-28T04:38:55.971Z,2.20
2023-03-28T04:39:55.953Z,2.30
2023-03-28T04:40:55.938Z,2.30
2023-03-28T04:41:56.015Z,2.20
2023-03-28T04:42:55.932Z,2.00
2023-03-28T04:43:55.918Z,2.40
2023-03-28T04:44:56.012Z,2.10
2023-03-28T04:45:55.928Z,2.10
2023-03-28T04:46:55.887Z,2.00
2023-03-28T04:47:55.911Z,1.80
2023-03-28T04:48:56.749Z,1.40
2023-03-28T04:49:55.836Z,1.90
2023-03-28T04:50:55.827Z,1.70
2023-03-28T04:51:55.820Z,1.70
2023-03-28T04:52:55.805Z,2.20
2023-03-28T04:53:55.807Z,1.90
2023-03-28T04:54:55.791Z,2.40
2023-03-28T04:55:55.779Z,2.70
2023-03-28T04:56:56.584Z,2.80
2023-03-28T04:57:55.754Z,0.80
2023-03-28T04:58:55.774Z,0.00
2023-03-28T04:59:55.726Z,0.00
2023-03-28T05:00:55.749Z,0.00
2023-03-28T05:01:55.725Z,2.70
2023-03-28T05:02:55.856Z,2.80
2023-03-28T05:03:55.710Z,0.00
2023-03-28T05:04:55.700Z,0.00
2023-03-28T05:05:55.659Z,0.00
2023-03-28T05:06:55.647Z,0.00
2023-03-28T05:07:55.633Z,0.00
2023-03-28T05:08:55.625Z,0.00
2023-03-28T05:09:55.612Z,0.10
2023-03-28T05:10:55.613Z,0.00
2023-03-28T05:11:55.590Z,0.00
2023-03-28T05:12:55.597Z,0.00
2023-03-28T05:13:55.579Z,0.00
2023-03-28T05:14:55.559Z,0.00
2023-03-28T05:15:55.560Z,0.00
2023-03-28T05:16:55.536Z,0.00
2023-03-28T05:17:55.614Z,0.00
2023-03-28T05:18:55.554Z,0.00
2023-03-28T05:19:55.499Z,3.10
2023-03-28T05:20:56.002Z,2.20
2023-03-28T05:21:55.520Z,0.00
2023-03-28T05:22:55.466Z,6.30
2023-03-28T05:23:55.460Z,7.90
2023-03-28T05:24:55.469Z,6.50
2023-03-28T05:25:55.431Z,6.20
2023-03-28T05:26:55.433Z,7.00
2023-03-28T05:27:55.409Z,7.10
2023-03-28T05:28:55.407Z,6.50
2023-03-28T05:29:55.401Z,7.10
2023-03-28T05:30:55.375Z,6.80
2023-03-28T05:31:55.381Z,7.40
2023-03-28T05:32:55.507Z,7.00
2023-03-28T05:33:55.369Z,7.00
2023-03-28T05:34:55.364Z,7.00
2023-03-28T05:35:55.415Z,6.80
2023-03-28T05:36:55.309Z,7.00
2023-03-28T05:37:55.300Z,7.60
2023-03-28T05:38:55.317Z,6.80
2023-03-28T05:39:55.280Z,7.00
2023-03-28T05:40:55.283Z,7.10
2023-03-28T05:41:55.266Z,7.00
2023-03-28T05:42:55.248Z,6.70
2023-03-28T05:43:55.262Z,6.90
2023-03-28T05:44:55.263Z,6.90
2023-03-28T05:45:55.239Z,7.20
2023-03-28T05:46:55.219Z,6.60
2023-03-28T05:47:55.233Z,7.40
2023-03-28T05:48:55.184Z,6.80
2023-03-28T05:49:55.293Z,6.80
2023-03-28T05:50:55.181Z,7.10
2023-03-28T05:51:55.161Z,7.20
2023-03-28T05:52:55.141Z,6.70
2023-03-28T05:53:55.148Z,6.60
2023-03-28T05:54:55.129Z,6.80
2023-03-28T05:55:55.154Z,6.30
2023-03-28T05:56:55.154Z,7.10
2023-03-28T05:57:55.109Z,6.90
2023-03-28T05:58:55.104Z,7.10
2023-03-28T05:59:55.064Z,7.40
2023-03-28T06:00:55.052Z,7.90
2023-03-28T06:01:55.039Z,7.30
2023-03-28T06:02:55.139Z,8.00
2023-03-28T06:03:55.128Z,7.30
2023-03-28T06:04:55.098Z,7.40
2023-03-28T06:05:54.993Z,7.50
2023-03-28T06:06:55.007Z,7.30
2023-03-28T06:07:54.986Z,7.40
2023-03-28T06:08:54.984Z,7.00
2023-03-28T06:09:54.957Z,7.50
2023-03-28T06:10:54.953Z,5.70
2023-03-28T06:11:54.927Z,6.30
2023-03-28T06:12:54.929Z,6.10
2023-03-28T06:13:54.942Z,6.10
2023-03-28T06:14:54.895Z,5.70
2023-03-28T06:15:54.881Z,5.70
2023-03-28T06:16:54.917Z,5.80
2023-03-28T06:17:54.921Z,5.90
2023-03-28T06:19:06.916Z,5.90
2023-03-28T06:19:55.859Z,6.30
2023-03-28T06:20:54.833Z,5.60
2023-03-28T06:21:54.833Z,5.60
2023-03-28T06:22:55.535Z,6.70
2023-03-28T06:23:54.811Z,5.80
2023-03-28T06:24:54.781Z,6.30
2023-03-28T06:25:54.787Z,5.90
2023-03-28T06:26:54.809Z,5.90
2023-03-28T06:27:54.748Z,6.10
2023-03-28T06:28:54.743Z,6.00
2023-03-28T06:29:54.725Z,5.80
2023-03-28T06:30:54.809Z,6.10
2023-03-28T06:31:54.771Z,6.10
2023-03-28T06:32:54.736Z,6.60
2023-03-28T06:33:54.688Z,6.20
2023-03-28T06:34:54.678Z,6.50
2023-03-28T06:35:54.715Z,6.20
2023-03-28T06:36:54.772Z,7.30
2023-03-28T06:37:54.641Z,6.80
2023-03-28T06:38:54.659Z,6.40
2023-03-28T06:39:58.043Z,7.30
2023-03-28T06:40:54.683Z,6.70
2023-03-28T06:41:54.613Z,7.20
2023-03-28T06:42:54.584Z,7.10
2023-03-28T06:43:54.745Z,7.20
2023-03-28T06:44:54.566Z,7.60
2023-03-28T06:45:54.607Z,6.80
2023-03-28T06:46:54.543Z,7.30
2023-03-28T06:47:54.647Z,7.10
2023-03-28T06:48:54.524Z,7.00
2023-03-28T06:49:54.504Z,7.30
2023-03-28T06:50:54.508Z,7.20
2023-03-28T06:51:54.504Z,7.10
2023-03-28T06:52:54.477Z,7.50
2023-03-28T06:53:54.552Z,7.80
2023-03-28T06:54:54.476Z,7.50
2023-03-28T06:55:54.456Z,7.20
2023-03-28T06:56:54.531Z,7.60
2023-03-28T06:57:54.418Z,7.20
2023-03-28T06:58:54.413Z,6.90
2023-03-28T06:59:54.392Z,7.50
2023-03-28T07:00:54.407Z,6.40
2023-03-28T07:01:54.457Z,6.40
2023-03-28T07:02:54.464Z,6.10
2023-03-28T07:03:54.421Z,6.60
2023-03-28T07:04:54.359Z,6.20
2023-03-28T07:05:54.332Z,6.00
2023-03-28T07:06:54.341Z,5.90
2023-03-28T07:07:54.305Z,6.80
2023-03-28T07:08:54.293Z,6.30
2023-03-28T07:09:54.303Z,6.40
2023-03-28T07:10:54.294Z,6.10
2023-03-28T07:11:54.264Z,6.60
2023-03-28T07:12:54.253Z,6.30
2023-03-28T07:14:00.702Z,6.80
2023-03-28T07:15:19.607Z,7.20
2023-03-28T07:15:55.085Z,6.40
2023-03-28T07:16:54.346Z,7.10
2023-03-28T07:17:56.031Z,6.90
2023-03-28T07:18:54.204Z,7.30
2023-03-28T07:19:54.205Z,7.90
2023-03-28T07:21:03.219Z,7.80
2023-03-28T07:21:55.168Z,7.70
2023-03-28T07:22:54.140Z,7.80
2023-03-28T07:23:54.140Z,7.70
2023-03-28T07:24:54.118Z,7.90
2023-03-28T07:25:54.104Z,7.90
2023-03-28T07:26:58.779Z,7.90
2023-03-28T07:27:55.084Z,7.80
2023-03-28T07:28:54.149Z,7.80
2023-03-28T07:29:54.079Z,7.50
2023-03-28T07:30:54.054Z,7.10
2023-03-28T07:31:54.118Z,7.20
2023-03-28T07:33:01.094Z,6.90
2023-03-28T07:33:55.047Z,7.30
2023-03-28T07:34:54.024Z,7.50
2023-03-28T07:35:54.036Z,7.30
2023-03-28T07:36:53.997Z,6.40
2023-03-28T07:37:53.994Z,7.30
2023-03-28T07:38:53.963Z,7.00
2023-03-28T07:39:53.989Z,7.20
2023-03-28T07:40:53.942Z,7.00
2023-03-28T07:41:53.927Z,7.60
2023-03-28T07:42:53.983Z,6.80
2023-03-28T07:43:53.902Z,6.90
2023-03-28T07:44:53.916Z,7.40
2023-03-28T07:45:53.920Z,6.90
2023-03-28T07:46:53.895Z,7.30
2023-03-28T07:47:53.904Z,7.00
2023-03-28T07:48:53.849Z,7.20
2023-03-28T07:49:53.835Z,7.20
2023-03-28T07:50:53.830Z,7.10
2023-03-28T07:51:53.830Z,6.90
2023-03-28T07:52:53.859Z,7.20
2023-03-28T07:53:53.789Z,6.80
2023-03-28T07:54:53.784Z,6.80
2023-03-28T07:55:55.562Z,6.80
2023-03-28T07:56:53.816Z,6.70
2023-03-28T07:57:53.744Z,7.10
2023-03-28T07:58:53.756Z,6.90
2023-03-28T07:59:53.729Z,6.70
2023-03-28T08:00:53.712Z,6.30
2023-03-28T08:01:53.718Z,6.50
2023-03-28T08:02:53.751Z,6.50
2023-03-28T08:03:53.772Z,6.90
2023-03-28T08:04:53.670Z,6.80
2023-03-28T08:05:53.685Z,6.80
2023-03-28T08:06:53.650Z,6.80
2023-03-28T08:07:53.647Z,7.10
2023-03-28T08:08:53.644Z,6.80
2023-03-28T08:09:54.067Z,6.90
2023-03-28T08:10:53.606Z,6.90
2023-03-28T08:11:53.806Z,7.30
2023-03-28T08:12:53.594Z,6.60
2023-03-28T08:13:53.574Z,6.90
2023-03-28T08:14:53.572Z,6.70
2023-03-28T08:15:55.109Z,6.70
2023-03-28T08:16:53.564Z,6.40
2023-03-28T08:17:53.664Z,6.60
2023-03-28T08:19:03.898Z,6.30
2023-03-28T08:19:54.498Z,7.20
2023-03-28T08:20:53.492Z,7.20
2023-03-28T08:21:53.661Z,6.80
2023-03-28T08:22:53.486Z,6.60
2023-03-28T08:23:53.468Z,6.70
2023-03-28T08:24:53.447Z,6.80
2023-03-28T08:25:53.432Z,6.30
2023-03-28T08:26:53.501Z,7.00
2023-03-28T08:27:53.429Z,6.90
2023-03-28T08:28:53.530Z,6.60
2023-03-28T08:29:53.389Z,6.60
2023-03-28T08:30:53.522Z,6.50
2023-03-28T08:31:53.424Z,6.40
2023-03-28T08:32:53.432Z,6.40
2023-03-28T08:33:53.346Z,6.20
2023-03-28T08:34:53.340Z,6.50
2023-03-28T08:35:53.364Z,6.00
2023-03-28T08:36:53.346Z,5.90
2023-03-28T08:37:53.301Z,6.20
2023-03-28T08:38:53.292Z,6.00
2023-03-28T08:39:54.063Z,6.50
2023-03-28T08:40:53.270Z,5.90
2023-03-28T08:41:53.281Z,7.60
2023-03-28T08:42:53.317Z,6.90
2023-03-28T08:43:53.232Z,8.40
2023-03-28T08:44:53.232Z,7.30
2023-03-28T08:45:53.225Z,6.20
2023-03-28T08:46:53.235Z,1.50
2023-03-28T08:47:53.216Z,0.00
2023-03-28T08:48:53.196Z,0.00
2023-03-28T08:49:53.193Z,0.10
2023-03-28T08:50:53.212Z,0.30
2023-03-28T08:51:53.160Z,0.00
2023-03-28T08:52:53.146Z,0.20
2023-03-28T08:53:53.132Z,0.10
2023-03-28T08:54:53.124Z,0.10
2023-03-28T08:55:53.798Z,0.30
2023-03-28T08:56:53.150Z,0.20
2023-03-28T08:57:53.097Z,0.90
2023-03-28T08:58:53.080Z,1.20
2023-03-28T08:59:53.155Z,0.20
2023-03-28T09:00:53.136Z,0.00
2023-03-28T09:01:53.592Z,0.20
2023-03-28T09:02:53.111Z,5.90
2023-03-28T09:03:53.212Z,6.00
2023-03-28T09:04:53.016Z,6.40
2023-03-28T09:05:52.995Z,6.00
2023-03-28T09:06:53.014Z,5.70
2023-03-28T09:07:52.967Z,5.80
2023-03-28T09:08:53.014Z,6.50
2023-03-28T09:09:52.964Z,6.20
2023-03-28T09:10:52.938Z,6.20
2023-03-28T09:11:52.929Z,4.10
2023-03-28T09:12:52.932Z,4.40
2023-03-28T09:13:52.913Z,5.10
2023-03-28T09:14:52.895Z,5.40
2023-03-28T09:15:52.897Z,5.00
2023-03-28T09:16:53.133Z,5.50
2023-03-28T09:17:52.915Z,5.80
2023-03-28T09:18:52.871Z,5.60
2023-03-28T09:19:52.843Z,6.10
2023-03-28T09:20:52.942Z,5.90
2023-03-28T09:21:57.578Z,7.20
2023-03-28T09:22:53.808Z,6.90
2023-03-28T09:23:52.796Z,6.80
2023-03-28T09:24:52.792Z,7.40
2023-03-28T09:25:52.770Z,7.30
2023-03-28T09:26:52.768Z,7.50
2023-03-28T09:27:52.784Z,7.50
2023-03-28T09:28:52.742Z,7.40
2023-03-28T09:29:52.725Z,7.60
2023-03-28T09:30:52.716Z,7.90
2023-03-28T09:31:52.772Z,7.10
2023-03-28T09:32:52.752Z,7.90
2023-03-28T09:33:52.688Z,8.00
2023-03-28T09:34:52.695Z,7.70
2023-03-28T09:35:52.726Z,7.70
2023-03-28T09:36:54.104Z,7.70
2023-03-28T09:37:52.651Z,7.90
2023-03-28T09:38:52.628Z,7.80
2023-03-28T09:39:52.676Z,7.90
2023-03-28T09:40:52.646Z,7.90
2023-03-28T09:41:52.605Z,8.20
2023-03-28T09:42:52.585Z,7.80
2023-03-28T09:43:52.579Z,8.10
2023-03-28T09:44:54.567Z,8.40
2023-03-28T09:45:52.629Z,8.30
2023-03-28T09:46:53.117Z,8.00
2023-03-28T09:47:52.639Z,8.30
2023-03-28T09:48:52.674Z,7.70
2023-03-28T09:50:02.254Z,7.40
2023-03-28T09:50:53.525Z,7.20
2023-03-28T09:51:52.478Z,7.80
2023-03-28T09:52:52.468Z,7.70
2023-03-28T09:53:52.476Z,8.00
2023-03-28T09:54:52.487Z,7.80
2023-03-28T09:56:03.548Z,7.00
2023-03-28T09:56:53.439Z,8.20
2023-03-28T09:57:52.408Z,7.50
2023-03-28T09:58:52.531Z,7.70
2023-03-28T09:59:52.402Z,7.70
2023-03-28T10:00:52.480Z,7.10
2023-03-28T10:01:52.416Z,7.40
2023-03-28T10:02:52.481Z,7.20
2023-03-28T10:03:52.350Z,7.20
2023-03-28T10:04:52.431Z,7.50
2023-03-28T10:05:52.487Z,7.10
2023-03-28T10:06:52.328Z,7.40
2023-03-28T10:07:52.298Z,7.20
2023-03-28T10:08:52.294Z,7.60
2023-03-28T10:09:52.298Z,7.30
2023-03-28T10:10:54.849Z,7.20
2023-03-28T10:11:52.283Z,7.60
2023-03-28T10:12:52.246Z,8.00
2023-03-28T10:13:52.268Z,8.00
2023-03-28T10:14:52.227Z,8.40
2023-03-28T10:15:52.264Z,8.00
2023-03-28T10:16:52.197Z,7.80
2023-03-28T10:17:52.217Z,8.20
2023-03-28T10:18:52.205Z,7.40
2023-03-28T10:19:52.624Z,7.70
2023-03-28T10:20:52.159Z,8.00
2023-03-28T10:21:52.144Z,7.60
2023-03-28T10:22:52.178Z,7.70
2023-03-28T10:23:52.120Z,7.80
2023-03-28T10:24:52.146Z,7.20
2023-03-28T10:25:52.109Z,7.20
2023-03-28T10:26:52.206Z,7.50
2023-03-28T10:27:52.089Z,7.60
2023-03-28T10:28:52.067Z,7.50
2023-03-28T10:29:52.074Z,8.00
2023-03-28T10:30:52.090Z,7.20
2023-03-28T10:31:52.033Z,6.90
2023-03-28T10:32:52.042Z,7.50
2023-03-28T10:33:52.009Z,7.40
2023-03-28T10:34:52.015Z,7.50
2023-03-28T10:35:52.054Z,8.00
2023-03-28T10:36:51.998Z,8.00
2023-03-28T10:37:51.968Z,7.90
2023-03-28T10:38:51.977Z,7.60
2023-03-28T10:39:52.138Z,7.30
2023-03-28T10:40:52.030Z,8.00
2023-03-28T10:41:52.065Z,8.00
2023-03-28T10:42:51.931Z,7.50
2023-03-28T10:43:51.896Z,7.20
2023-03-28T10:44:51.885Z,8.00
2023-03-28T10:45:51.892Z,7.50
2023-03-28T10:46:51.883Z,7.90
2023-03-28T10:47:51.895Z,7.50
2023-03-28T10:48:51.861Z,7.40
2023-03-28T10:49:51.858Z,7.70
2023-03-28T10:50:51.825Z,7.60
2023-03-28T10:51:51.861Z,7.40
2023-03-28T10:52:51.804Z,8.10
2023-03-28T10:53:52.614Z,7.30
2023-03-28T10:54:51.818Z,7.70
2023-03-28T10:55:51.762Z,7.40
2023-03-28T10:56:51.784Z,7.10
2023-03-28T10:57:51.770Z,7.20
2023-03-28T10:58:51.751Z,6.80
2023-03-28T10:59:51.723Z,7.10
2023-03-28T11:00:51.724Z,6.60
2023-03-28T11:01:51.797Z,6.60
2023-03-28T11:02:51.835Z,6.30
2023-03-28T11:03:51.782Z,6.80
2023-03-28T11:04:51.667Z,6.80
2023-03-28T11:06:05.610Z,6.80
2023-03-28T11:06:52.646Z,7.40
2023-03-28T11:07:51.646Z,7.30
2023-03-28T11:09:01.638Z,7.00
2023-03-28T11:09:51.605Z,8.10
2023-03-28T11:10:52.148Z,7.80
2023-03-28T11:11:51.633Z,7.30
2023-03-28T11:12:55.634Z,7.40
2023-03-28T11:13:51.564Z,7.40
2023-03-28T11:14:51.573Z,7.20
2023-03-28T11:15:51.809Z,6.70
2023-03-28T11:16:51.537Z,7.20
2023-03-28T11:17:51.579Z,6.80
2023-03-28T11:18:51.521Z,6.90
2023-03-28T11:19:51.493Z,7.20
2023-03-28T11:20:51.483Z,7.00
2023-03-28T11:21:51.483Z,7.40
2023-03-28T11:23:04.712Z,7.00
2023-03-28T11:23:52.470Z,7.20
2023-03-28T11:24:51.441Z,7.40
2023-03-28T11:25:51.428Z,6.70
2023-03-28T11:26:51.494Z,7.10
2023-03-28T11:27:51.427Z,6.90
2023-03-28T11:28:51.398Z,7.00
2023-03-28T11:29:51.408Z,6.90
2023-03-28T11:30:51.377Z,6.60
2023-03-28T11:31:51.438Z,6.30
2023-03-28T11:32:51.444Z,6.20
2023-03-28T11:33:51.492Z,7.80
2023-03-28T11:34:51.425Z,0.00
2023-03-28T11:35:51.337Z,0.30
2023-03-28T11:36:51.736Z,5.30
2023-03-28T11:37:51.294Z,0.00
2023-03-28T11:38:51.289Z,0.00
2023-03-28T11:39:51.289Z,0.00
2023-03-28T11:40:51.273Z,0.00
2023-03-28T11:41:51.252Z,0.00
2023-03-28T11:42:51.259Z,0.00
2023-03-28T11:43:51.229Z,0.00
2023-03-28T11:44:51.216Z,0.00
2023-03-28T11:45:52.988Z,0.00
2023-03-28T11:46:51.249Z,0.00
2023-03-28T11:47:51.217Z,0.00
2023-03-28T11:48:51.182Z,0.00
2023-03-28T11:49:51.162Z,0.00
2023-03-28T11:50:51.180Z,3.20
2023-03-28T11:51:51.139Z,4.90
2023-03-28T11:52:51.127Z,5.20
2023-03-28T11:53:51.650Z,4.60
2023-03-28T11:54:51.119Z,6.30
2023-03-28T11:55:51.132Z,6.60
2023-03-28T11:56:51.184Z,6.50
2023-03-28T11:57:51.077Z,6.20
2023-03-28T11:58:51.669Z,6.60
2023-03-28T11:59:51.052Z,6.90
2023-03-28T12:00:51.133Z,7.00
2023-03-28T12:01:51.074Z,6.60
2023-03-28T12:02:51.098Z,6.90
2023-03-28T12:03:51.123Z,6.80
2023-03-28T12:04:50.993Z,6.80
2023-03-28T12:05:51.420Z,6.80
2023-03-28T12:07:01.884Z,6.60
2023-03-28T12:07:52.114Z,6.90
2023-03-28T12:08:50.950Z,7.10
2023-03-28T12:09:50.942Z,7.10
2023-03-28T12:10:50.930Z,6.90
2023-03-28T12:11:50.928Z,7.30
2023-03-28T12:12:50.944Z,7.60
2023-03-28T12:13:55.643Z,7.50
2023-03-28T12:14:52.036Z,7.00
2023-03-28T12:15:50.893Z,7.50
2023-03-28T12:16:50.921Z,7.70
2023-03-28T12:17:51.697Z,7.30
2023-03-28T12:18:50.845Z,7.20
2023-03-28T12:19:50.851Z,7.30
2023-03-28T12:20:50.832Z,7.30
2023-03-28T12:21:50.822Z,6.80
2023-03-28T12:22:50.795Z,6.90
2023-03-28T12:23:50.786Z,7.40
2023-03-28T12:24:50.777Z,7.70
2023-03-28T12:25:50.761Z,7.40
2023-03-28T12:26:50.782Z,7.70
2023-03-28T12:27:50.742Z,7.50
2023-03-28T12:28:50.728Z,7.70
2023-03-28T12:29:50.719Z,7.90
2023-03-28T12:30:50.765Z,7.50
2023-03-28T12:31:50.699Z,7.70
2023-03-28T12:32:50.757Z,8.50
2023-03-28T12:33:50.671Z,8.20
2023-03-28T12:34:50.657Z,8.20
2023-03-28T12:35:50.717Z,7.40
2023-03-28T12:36:50.792Z,8.40
2023-03-28T12:37:51.478Z,8.20
2023-03-28T12:38:50.634Z,7.30
2023-03-28T12:39:50.608Z,7.40
2023-03-28T12:40:50.594Z,7.00
2023-03-28T12:41:50.898Z,6.90
2023-03-28T12:42:50.572Z,7.00
2023-03-28T12:43:50.574Z,7.60
2023-03-28T12:44:50.571Z,7.20
2023-03-28T12:45:50.584Z,7.70
2023-03-28T12:46:50.564Z,7.90
2023-03-28T12:47:50.556Z,8.10
2023-03-28T12:48:50.566Z,7.60
2023-03-28T12:49:50.495Z,6.80
2023-03-28T12:50:50.488Z,7.10
2023-03-28T12:51:50.493Z,7.30
2023-03-28T12:52:50.535Z,7.40
2023-03-28T12:53:50.542Z,7.30
2023-03-28T12:54:50.443Z,7.70
2023-03-28T12:55:50.440Z,7.60
2023-03-28T12:56:50.474Z,7.80
2023-03-28T12:57:50.422Z,7.60
2023-03-28T12:58:50.389Z,6.90
2023-03-28T12:59:50.384Z,7.20
2023-03-28T13:00:50.389Z,7.40
2023-03-28T13:01:50.431Z,7.00
2023-03-28T13:02:50.392Z,6.90
2023-03-28T13:03:50.343Z,7.30
2023-03-28T13:04:50.386Z,6.80
2023-03-28T13:05:50.396Z,6.70
2023-03-28T13:06:50.324Z,6.40
2023-03-28T13:07:50.293Z,6.90
2023-03-28T13:08:50.332Z,7.30
2023-03-28T13:09:50.303Z,7.30
2023-03-28T13:10:50.444Z,4.20
2023-03-28T13:11:50.256Z,3.20
2023-03-28T13:12:50.243Z,5.10
2023-03-28T13:13:50.231Z,4.30
2023-03-28T13:14:50.219Z,4.70
2023-03-28T13:15:50.264Z,6.00
2023-03-28T13:16:50.199Z,2.90
2023-03-28T13:17:50.221Z,4.00
2023-03-28T13:18:50.205Z,2.80
2023-03-28T13:19:50.162Z,3.80